createdAt,value
2019-02-01T00:00:20.030Z,987.06
2019-02-01T00:01:19.887Z,987.08
2019-02-01T00:02:19.858Z,987.10
2019-02-01T00:03:19.836Z,987.12
2019-02-01T00:04:19.806Z,987.06
2019-02-01T00:05:19.778Z,987.04
2019-02-01T00:06:19.864Z,987.05
2019-02-01T00:07:19.712Z,987.05
2019-02-01T00:08:19.683Z,987.04
2019-02-01T00:09:19.654Z,987.06
2019-02-01T00:10:19.622Z,987.05
2019-02-01T00:11:19.603Z,987.02
2019-02-01T00:12:19.565Z,987.05
2019-02-01T00:13:19.546Z,986.99
2019-02-01T00:14:19.511Z,987.02
2019-02-01T00:15:19.483Z,986.99
2019-02-01T00:16:19.450Z,987.00
2019-02-01T00:17:19.422Z,986.97
2019-02-01T00:18:19.394Z,986.93
2019-02-01T00:19:19.363Z,986.90
2019-02-01T00:20:19.337Z,986.88
2019-02-01T00:21:19.309Z,986.88
2019-02-01T00:22:19.280Z,986.88
2019-02-01T00:23:19.256Z,986.86
2019-02-01T00:24:19.217Z,986.78
2019-02-01T00:25:19.189Z,986.76
2019-02-01T00:26:19.157Z,986.73
2019-02-01T00:27:19.150Z,986.73
2019-02-01T00:28:19.097Z,986.71
2019-02-01T00:29:19.070Z,986.71
2019-02-01T00:30:19.060Z,986.70
2019-02-01T00:31:19.021Z,986.69
2019-02-01T00:32:18.983Z,986.63
2019-02-01T00:33:26.937Z,986.60
2019-02-01T00:34:18.923Z,986.58
2019-02-01T00:35:18.904Z,986.56
2019-02-01T00:36:18.870Z,986.55
2019-02-01T00:37:18.836Z,986.52
2019-02-01T00:38:18.821Z,986.50
2019-02-01T00:39:18.779Z,986.54
2019-02-01T00:40:18.762Z,986.50
2019-02-01T00:41:18.727Z,986.48
2019-02-01T00:42:18.692Z,986.47
2019-02-01T00:43:18.661Z,986.48
2019-02-01T00:44:18.632Z,986.47
2019-02-01T00:45:18.611Z,986.41
2019-02-01T00:46:18.573Z,986.42
2019-02-01T00:47:18.544Z,986.36
2019-02-01T00:48:18.519Z,986.33
2019-02-01T00:49:18.488Z,986.27
2019-02-01T00:50:18.482Z,986.24
2019-02-01T00:51:18.429Z,986.27
2019-02-01T00:52:18.416Z,986.19
2019-02-01T00:53:18.508Z,986.21
2019-02-01T00:54:18.340Z,986.14
2019-02-01T00:55:18.313Z,986.10
2019-02-01T00:56:18.286Z,986.09
2019-02-01T00:57:18.256Z,986.09
2019-02-01T00:58:18.227Z,986.07
2019-02-01T00:59:18.200Z,986.07
2019-02-01T01:00:18.169Z,986.00
2019-02-01T01:01:18.141Z,986.03
2019-02-01T01:02:18.111Z,986.02
2019-02-01T01:03:18.131Z,986.00
2019-02-01T01:04:18.054Z,985.97
2019-02-01T01:05:18.025Z,985.94
2019-02-01T01:06:18.002Z,985.92
2019-02-01T01:07:17.975Z,985.89
2019-02-01T01:08:17.941Z,985.88
2019-02-01T01:09:17.907Z,985.84
2019-02-01T01:10:17.878Z,985.81
2019-02-01T01:11:17.857Z,985.84
2019-02-01T01:12:17.837Z,985.81
2019-02-01T01:13:17.792Z,985.82
2019-02-01T01:14:17.764Z,985.82
2019-02-01T01:15:17.734Z,985.78
2019-02-01T01:16:17.703Z,985.79
2019-02-01T01:17:17.681Z,985.77
2019-02-01T01:18:24.130Z,985.80
2019-02-01T01:19:17.619Z,985.75
2019-02-01T01:20:17.591Z,985.72
2019-02-01T01:21:17.561Z,985.69
2019-02-01T01:22:17.531Z,985.74
2019-02-01T01:23:17.503Z,985.66
2019-02-01T01:24:17.474Z,985.70
2019-02-01T01:25:17.445Z,985.62
2019-02-01T01:26:17.431Z,985.62
2019-02-01T01:27:17.386Z,985.55
2019-02-01T01:28:17.359Z,985.57
2019-02-01T01:29:17.329Z,985.58
2019-02-01T01:30:17.303Z,985.56
2019-02-01T01:31:17.281Z,985.56
2019-02-01T01:32:17.257Z,985.53
2019-02-01T01:33:17.214Z,985.57
2019-02-01T01:34:17.192Z,985.54
2019-02-01T01:35:17.288Z,985.57
2019-02-01T01:36:17.206Z,985.47
2019-02-01T01:37:17.100Z,985.48
2019-02-01T01:38:17.069Z,985.44
2019-02-01T01:39:17.047Z,985.46
2019-02-01T01:40:17.014Z,985.49
2019-02-01T01:41:16.995Z,985.48
2019-02-01T01:42:16.956Z,985.48
2019-02-01T01:43:16.930Z,985.44
2019-02-01T01:44:16.899Z,985.42
2019-02-01T01:45:16.870Z,985.39
2019-02-01T01:46:16.846Z,985.41
2019-02-01T01:47:16.811Z,985.37
2019-02-01T01:48:16.783Z,985.31
2019-02-01T01:49:16.753Z,985.28
2019-02-01T01:50:16.723Z,985.31
2019-02-01T01:51:16.694Z,985.31
2019-02-01T01:52:16.665Z,985.28
2019-02-01T01:53:16.644Z,985.28
2019-02-01T01:54:16.606Z,985.32
2019-02-01T01:55:16.577Z,985.30
2019-02-01T01:56:16.549Z,985.29
2019-02-01T01:57:16.522Z,985.28
2019-02-01T01:58:16.488Z,985.31
2019-02-01T01:59:16.460Z,985.22
2019-02-01T02:00:16.433Z,985.24
2019-02-01T02:01:16.404Z,985.21
2019-02-01T02:02:16.375Z,985.30
2019-02-01T02:03:16.357Z,985.23
2019-02-01T02:04:16.315Z,985.19
2019-02-01T02:05:16.288Z,985.12
2019-02-01T02:06:16.259Z,985.15
2019-02-01T02:07:16.237Z,985.12
2019-02-01T02:08:16.201Z,985.09
2019-02-01T02:09:16.173Z,985.09
2019-02-01T02:10:16.142Z,985.08
2019-02-01T02:11:16.122Z,985.07
2019-02-01T02:12:16.085Z,985.05
2019-02-01T02:13:16.057Z,985.01
2019-02-01T02:14:16.027Z,985.03
2019-02-01T02:15:15.999Z,985.04
2019-02-01T02:16:15.970Z,985.00
2019-02-01T02:17:15.940Z,985.00
2019-02-01T02:18:15.919Z,984.94
2019-02-01T02:19:15.882Z,984.94
2019-02-01T02:20:15.853Z,984.94
2019-02-01T02:21:15.826Z,984.94
2019-02-01T02:22:15.798Z,984.92
2019-02-01T02:23:15.764Z,984.94
2019-02-01T02:24:15.746Z,984.87
2019-02-01T02:25:15.712Z,984.83
2019-02-01T02:26:15.677Z,984.79
2019-02-01T02:27:15.648Z,984.69
2019-02-01T02:28:15.618Z,984.78
2019-02-01T02:29:15.590Z,984.82
2019-02-01T02:30:15.562Z,984.85
2019-02-01T02:31:15.530Z,984.76
2019-02-01T02:32:15.517Z,984.79
2019-02-01T02:33:15.473Z,984.77
2019-02-01T02:34:15.445Z,984.73
2019-02-01T02:35:15.421Z,984.71
2019-02-01T02:36:15.387Z,984.69
2019-02-01T02:37:15.357Z,984.73
2019-02-01T02:38:15.332Z,984.67
2019-02-01T02:39:15.301Z,984.65
2019-02-01T02:40:15.286Z,984.66
2019-02-01T02:41:15.259Z,984.58
2019-02-01T02:42:15.215Z,984.56
2019-02-01T02:43:15.182Z,984.60
2019-02-01T02:44:15.161Z,984.61
2019-02-01T02:45:15.130Z,984.58
2019-02-01T02:46:15.096Z,984.54
2019-02-01T02:47:15.069Z,984.59
2019-02-01T02:48:15.037Z,984.58
2019-02-01T02:49:15.008Z,984.54
2019-02-01T02:50:14.982Z,984.54
2019-02-01T02:51:14.949Z,984.56
2019-02-01T02:52:14.921Z,984.53
2019-02-01T02:53:14.899Z,984.52
2019-02-01T02:54:14.867Z,984.51
2019-02-01T02:55:14.833Z,984.48
2019-02-01T02:56:14.806Z,984.43
2019-02-01T02:57:14.787Z,984.43
2019-02-01T02:58:14.747Z,984.44
2019-02-01T02:59:14.722Z,984.39
2019-02-01T03:00:14.689Z,984.36
2019-02-01T03:01:14.660Z,984.39
2019-02-01T03:02:14.636Z,984.39
2019-02-01T03:03:14.602Z,984.43
2019-02-01T03:04:14.573Z,984.44
2019-02-01T03:05:14.558Z,984.45
2019-02-01T03:06:14.516Z,984.48
2019-02-01T03:07:14.490Z,984.46
2019-02-01T03:08:14.459Z,984.42
2019-02-01T03:09:14.443Z,984.44
2019-02-01T03:10:14.406Z,984.39
2019-02-01T03:11:14.381Z,984.40
2019-02-01T03:12:14.342Z,984.40
2019-02-01T03:13:14.312Z,984.32
2019-02-01T03:14:14.282Z,984.36
2019-02-01T03:15:14.262Z,984.35
2019-02-01T03:16:14.229Z,984.38
2019-02-01T03:17:14.196Z,984.35
2019-02-01T03:18:14.182Z,984.37
2019-02-01T03:19:14.139Z,984.37
2019-02-01T03:20:14.118Z,984.35
2019-02-01T03:21:14.080Z,984.37
2019-02-01T03:22:14.052Z,984.37
2019-02-01T03:23:14.021Z,984.31
2019-02-01T03:24:13.998Z,984.32
2019-02-01T03:25:13.970Z,984.23
2019-02-01T03:26:13.936Z,984.22
2019-02-01T03:27:13.913Z,984.11
2019-02-01T03:28:13.931Z,984.15
2019-02-01T03:29:13.856Z,984.08
2019-02-01T03:30:13.820Z,984.08
2019-02-01T03:31:13.791Z,984.10
2019-02-01T03:32:13.765Z,984.08
2019-02-01T03:33:13.737Z,984.09
2019-02-01T03:34:13.706Z,984.10
2019-02-01T03:35:13.675Z,984.04
2019-02-01T03:36:13.646Z,984.00
2019-02-01T03:37:13.620Z,983.96
2019-02-01T03:38:13.590Z,983.95
2019-02-01T03:39:13.559Z,983.94
2019-02-01T03:40:13.532Z,983.93
2019-02-01T03:41:13.511Z,983.92
2019-02-01T03:42:13.504Z,983.99
2019-02-01T03:43:13.444Z,983.94
2019-02-01T03:44:13.427Z,983.94
2019-02-01T03:45:13.386Z,983.97
2019-02-01T03:46:13.367Z,983.93
2019-02-01T03:47:13.330Z,983.90
2019-02-01T03:48:13.298Z,983.97
2019-02-01T03:49:25.150Z,983.93
2019-02-01T03:50:13.241Z,983.90
2019-02-01T03:51:13.213Z,983.87
2019-02-01T03:52:13.190Z,983.90
2019-02-01T03:53:13.167Z,983.90
2019-02-01T03:54:13.126Z,983.86
2019-02-01T03:55:13.096Z,983.83
2019-02-01T03:56:13.074Z,983.77
2019-02-01T03:57:13.045Z,983.79
2019-02-01T03:58:13.008Z,983.75
2019-02-01T03:59:12.988Z,983.77
2019-02-01T04:00:12.955Z,983.71
2019-02-01T04:01:12.923Z,983.75
2019-02-01T04:02:12.892Z,983.75
2019-02-01T04:03:12.871Z,983.70
2019-02-01T04:04:12.845Z,983.72
2019-02-01T04:05:12.805Z,983.73
2019-02-01T04:06:12.778Z,983.74
2019-02-01T04:07:12.752Z,983.70
2019-02-01T04:08:12.721Z,983.73
2019-02-01T04:09:12.697Z,983.70
2019-02-01T04:10:12.662Z,983.76
2019-02-01T04:11:12.633Z,983.72
2019-02-01T04:12:12.603Z,983.70
2019-02-01T04:13:12.576Z,983.73
2019-02-01T04:14:12.544Z,983.72
2019-02-01T04:15:12.531Z,983.70
2019-02-01T04:16:12.488Z,983.77
2019-02-01T04:17:12.461Z,983.75
2019-02-01T04:18:12.429Z,983.72
2019-02-01T04:19:12.408Z,983.72
2019-02-01T04:20:12.380Z,983.73
2019-02-01T04:21:12.347Z,983.73
2019-02-01T04:22:12.321Z,983.72
2019-02-01T04:23:12.288Z,983.74
2019-02-01T04:24:12.258Z,983.70
2019-02-01T04:25:12.390Z,983.78
2019-02-01T04:26:12.212Z,983.82
2019-02-01T04:27:12.173Z,983.87
2019-02-01T04:28:12.143Z,983.84
2019-02-01T04:29:12.119Z,983.86
2019-02-01T04:30:12.096Z,983.79
2019-02-01T04:31:12.085Z,983.80
2019-02-01T04:32:12.033Z,983.77
2019-02-01T04:33:12.006Z,983.85
2019-02-01T04:34:11.973Z,983.82
2019-02-01T04:35:11.940Z,983.83
2019-02-01T04:36:11.913Z,983.82
2019-02-01T04:37:11.886Z,983.81
2019-02-01T04:38:11.862Z,983.76
2019-02-01T04:39:11.830Z,983.69
2019-02-01T04:40:11.797Z,983.69
2019-02-01T04:41:11.769Z,983.68
2019-02-01T04:42:11.738Z,983.62
2019-02-01T04:43:11.710Z,983.57
2019-02-01T04:44:11.689Z,983.54
2019-02-01T04:45:11.653Z,983.48
2019-02-01T04:46:11.774Z,983.44
2019-02-01T04:47:11.592Z,983.41
2019-02-01T04:48:11.565Z,983.41
2019-02-01T04:49:11.534Z,983.39
2019-02-01T04:50:11.505Z,983.35
2019-02-01T04:51:11.476Z,983.33
2019-02-01T04:52:11.446Z,983.28
2019-02-01T04:53:11.422Z,983.30
2019-02-01T04:54:11.390Z,983.29
2019-02-01T04:55:11.360Z,983.24
2019-02-01T04:56:11.333Z,983.22
2019-02-01T04:57:11.302Z,983.22
2019-02-01T04:58:11.278Z,983.19
2019-02-01T04:59:11.250Z,983.16
2019-02-01T05:00:11.228Z,983.09
2019-02-01T05:01:11.191Z,983.08
2019-02-01T05:02:11.158Z,983.08
2019-02-01T05:03:11.128Z,983.03
2019-02-01T05:04:11.109Z,983.04
2019-02-01T05:05:11.074Z,983.08
2019-02-01T05:06:11.041Z,982.99
2019-02-01T05:07:11.014Z,983.05
2019-02-01T05:08:10.984Z,983.03
2019-02-01T05:09:10.965Z,983.04
2019-02-01T05:10:10.936Z,983.03
2019-02-01T05:11:10.899Z,983.08
2019-02-01T05:12:10.868Z,983.14
2019-02-01T05:13:10.857Z,983.13
2019-02-01T05:14:10.810Z,983.19
2019-02-01T05:15:10.780Z,983.20
2019-02-01T05:16:10.750Z,983.19
2019-02-01T05:17:10.720Z,983.23
2019-02-01T05:18:10.700Z,983.27
2019-02-01T05:19:10.662Z,983.30
2019-02-01T05:20:19.855Z,983.25
2019-02-01T05:21:10.633Z,983.22
2019-02-01T05:22:10.586Z,983.25
2019-02-01T05:23:10.557Z,983.23
2019-02-01T05:24:10.519Z,983.22
2019-02-01T05:25:10.487Z,983.25
2019-02-01T05:26:10.458Z,983.31
2019-02-01T05:27:10.492Z,983.23
2019-02-01T05:28:10.399Z,983.24
2019-02-01T05:29:10.377Z,983.25
2019-02-01T05:30:10.340Z,983.27
2019-02-01T05:31:10.319Z,983.27
2019-02-01T05:32:10.282Z,983.24
2019-02-01T05:33:10.260Z,983.20
2019-02-01T05:34:10.231Z,983.20
2019-02-01T05:35:10.195Z,983.21
2019-02-01T05:36:10.164Z,983.25
2019-02-01T05:37:10.136Z,983.21
2019-02-01T05:38:10.104Z,983.21
2019-02-01T05:39:10.077Z,983.23
2019-02-01T05:40:10.045Z,983.21
2019-02-01T05:41:10.017Z,983.22
2019-02-01T05:42:09.986Z,983.18
2019-02-01T05:43:09.958Z,983.16
2019-02-01T05:44:09.928Z,983.23
2019-02-01T05:45:09.905Z,983.25
2019-02-01T05:46:09.868Z,983.26
2019-02-01T05:47:09.840Z,983.26
2019-02-01T05:48:09.809Z,983.26
2019-02-01T05:49:09.782Z,983.24
2019-02-01T05:50:09.750Z,983.22
2019-02-01T05:51:09.723Z,983.23
2019-02-01T05:52:09.696Z,983.26
2019-02-01T05:53:09.668Z,983.31
2019-02-01T05:54:09.632Z,983.38
2019-02-01T05:55:09.603Z,983.33
2019-02-01T05:56:09.576Z,983.31
2019-02-01T05:57:09.546Z,983.28
2019-02-01T05:58:09.514Z,983.39
2019-02-01T05:59:09.483Z,983.36
2019-02-01T06:00:09.464Z,983.36
2019-02-01T06:01:09.426Z,983.38
2019-02-01T06:02:09.399Z,983.37
2019-02-01T06:03:09.388Z,983.36
2019-02-01T06:04:09.338Z,983.40
2019-02-01T06:05:09.307Z,983.38
2019-02-01T06:06:09.285Z,983.42
2019-02-01T06:07:09.248Z,983.35
2019-02-01T06:08:09.228Z,983.47
2019-02-01T06:09:09.199Z,983.41
2019-02-01T06:10:09.159Z,983.39
2019-02-01T06:11:09.143Z,983.41
2019-02-01T06:12:09.109Z,983.39
2019-02-01T06:13:09.077Z,983.39
2019-02-01T06:14:09.041Z,983.32
2019-02-01T06:15:09.027Z,983.38
2019-02-01T06:16:08.983Z,983.44
2019-02-01T06:17:08.959Z,983.35
2019-02-01T06:18:08.926Z,983.43
2019-02-01T06:19:08.896Z,983.36
2019-02-01T06:20:08.865Z,983.39
2019-02-01T06:21:08.836Z,983.37
2019-02-01T06:22:08.814Z,983.39
2019-02-01T06:23:08.778Z,983.38
2019-02-01T06:24:08.750Z,983.44
2019-02-01T06:25:08.719Z,983.38
2019-02-01T06:26:10.185Z,983.40
2019-02-01T06:27:08.728Z,983.40
2019-02-01T06:28:08.636Z,983.43
2019-02-01T06:29:08.600Z,983.41
2019-02-01T06:30:08.574Z,983.36
2019-02-01T06:31:08.543Z,983.36
2019-02-01T06:32:08.514Z,983.44
2019-02-01T06:33:08.482Z,983.39
2019-02-01T06:34:08.454Z,983.40
2019-02-01T06:35:08.437Z,983.37
2019-02-01T06:36:08.402Z,983.36
2019-02-01T06:37:08.363Z,983.35
2019-02-01T06:38:08.463Z,983.33
2019-02-01T06:39:08.305Z,983.35
2019-02-01T06:40:08.324Z,983.38
2019-02-01T06:41:08.246Z,983.36
2019-02-01T06:42:08.215Z,983.39
2019-02-01T06:43:08.187Z,983.42
2019-02-01T06:44:09.520Z,983.35
2019-02-01T06:45:08.128Z,983.32
2019-02-01T06:46:08.098Z,983.33
2019-02-01T06:47:08.068Z,983.37
2019-02-01T06:48:08.039Z,983.35
2019-02-01T06:49:08.013Z,983.35
2019-02-01T06:50:07.980Z,983.31
2019-02-01T06:51:07.957Z,983.34
2019-02-01T06:52:07.930Z,983.36
2019-02-01T06:53:07.898Z,983.37
2019-02-01T06:54:08.016Z,983.35
2019-02-01T06:55:07.831Z,983.38
2019-02-01T06:56:07.807Z,983.37
2019-02-01T06:57:07.778Z,983.38
2019-02-01T06:58:07.745Z,983.37
2019-02-01T06:59:07.714Z,983.34
2019-02-01T07:00:07.694Z,983.42
2019-02-01T07:01:07.657Z,983.44
2019-02-01T07:02:07.626Z,983.47
2019-02-01T07:03:07.597Z,983.47
2019-02-01T07:04:07.565Z,983.54
2019-02-01T07:05:07.537Z,983.57
2019-02-01T07:06:07.509Z,983.59
2019-02-01T07:07:07.481Z,983.70
2019-02-01T07:08:07.450Z,983.72
2019-02-01T07:09:07.436Z,983.76
2019-02-01T07:10:07.390Z,983.68
2019-02-01T07:11:07.373Z,983.70
2019-02-01T07:12:07.332Z,983.81
2019-02-01T07:13:07.309Z,983.93
2019-02-01T07:14:07.273Z,984.02
2019-02-01T07:15:07.245Z,984.02
2019-02-01T07:16:07.222Z,984.11
2019-02-01T07:17:07.191Z,984.07
2019-02-01T07:18:07.154Z,984.07
2019-02-01T07:19:07.131Z,984.00
2019-02-01T07:20:07.103Z,983.87
2019-02-01T07:21:08.169Z,983.77
2019-02-01T07:22:07.046Z,983.66
2019-02-01T07:23:07.030Z,983.63
2019-02-01T07:24:06.989Z,983.63
2019-02-01T07:25:06.950Z,983.68
2019-02-01T07:26:06.928Z,983.66
2019-02-01T07:27:06.894Z,983.67
2019-02-01T07:28:06.863Z,983.79
2019-02-01T07:29:06.843Z,983.68
2019-02-01T07:30:06.805Z,983.66
2019-02-01T07:31:06.776Z,983.69
2019-02-01T07:32:06.746Z,983.73
2019-02-01T07:33:06.733Z,983.74
2019-02-01T07:34:06.692Z,983.68
2019-02-01T07:35:06.658Z,983.67
2019-02-01T07:36:06.630Z,983.66
2019-02-01T07:37:06.600Z,983.72
2019-02-01T07:38:06.570Z,983.80
2019-02-01T07:39:06.542Z,983.82
2019-02-01T07:40:06.511Z,983.84
2019-02-01T07:41:06.483Z,983.81
2019-02-01T07:42:06.461Z,983.82
2019-02-01T07:43:06.423Z,983.83
2019-02-01T07:44:06.397Z,983.78
2019-02-01T07:45:06.366Z,983.76
2019-02-01T07:46:06.338Z,983.78
2019-02-01T07:47:06.371Z,983.78
2019-02-01T07:48:06.287Z,983.80
2019-02-01T07:49:06.249Z,983.80
2019-02-01T07:50:06.221Z,983.80
2019-02-01T07:51:15.194Z,983.80
2019-02-01T07:52:06.171Z,983.82
2019-02-01T07:53:06.148Z,983.83
2019-02-01T07:54:06.113Z,983.83
2019-02-01T07:55:06.084Z,983.89
2019-02-01T07:56:06.054Z,983.93
2019-02-01T07:57:06.024Z,983.94
2019-02-01T07:58:05.990Z,983.94
2019-02-01T07:59:05.969Z,983.93
2019-02-01T08:00:05.929Z,983.92
2019-02-01T08:01:05.906Z,983.93
2019-02-01T08:02:05.879Z,983.96
2019-02-01T08:03:05.843Z,983.95
2019-02-01T08:04:05.817Z,983.98
2019-02-01T08:05:05.794Z,984.03
2019-02-01T08:06:05.771Z,984.01
2019-02-01T08:07:05.726Z,984.02
2019-02-01T08:08:05.699Z,984.03
2019-02-01T08:09:05.682Z,984.06
2019-02-01T08:10:05.643Z,984.14
2019-02-01T08:11:05.611Z,984.11
2019-02-01T08:12:05.580Z,984.19
2019-02-01T08:13:05.564Z,984.23
2019-02-01T08:14:05.525Z,984.30
2019-02-01T08:15:05.495Z,984.31
2019-02-01T08:16:05.466Z,984.34
2019-02-01T08:17:05.443Z,984.33
2019-02-01T08:18:05.425Z,984.27
2019-02-01T08:19:05.391Z,984.25
2019-02-01T08:20:05.362Z,984.19
2019-02-01T08:21:05.326Z,984.18
2019-02-01T08:22:05.292Z,984.17
2019-02-01T08:23:05.267Z,984.14
2019-02-01T08:24:05.242Z,984.21
2019-02-01T08:25:05.209Z,984.20
2019-02-01T08:26:05.177Z,984.27
2019-02-01T08:27:05.154Z,984.32
2019-02-01T08:28:05.123Z,984.34
2019-02-01T08:29:05.098Z,984.36
2019-02-01T08:30:05.074Z,984.28
2019-02-01T08:31:05.039Z,984.24
2019-02-01T08:32:05.011Z,984.16
2019-02-01T08:33:05.131Z,984.14
2019-02-01T08:34:04.952Z,984.23
2019-02-01T08:35:04.921Z,984.27
2019-02-01T08:36:04.964Z,984.30
2019-02-01T08:37:04.865Z,984.32
2019-02-01T08:38:04.840Z,984.36
2019-02-01T08:39:04.814Z,984.28
2019-02-01T08:40:04.781Z,984.25
2019-02-01T08:41:04.761Z,984.26
2019-02-01T08:42:04.722Z,984.26
2019-02-01T08:43:06.520Z,984.29
2019-02-01T08:44:04.672Z,984.24
2019-02-01T08:45:04.641Z,984.18
2019-02-01T08:46:04.607Z,984.20
2019-02-01T08:47:04.579Z,984.18
2019-02-01T08:48:04.553Z,984.25
2019-02-01T08:49:04.524Z,984.24
2019-02-01T08:50:04.505Z,984.24
2019-02-01T08:51:04.467Z,984.28
2019-02-01T08:52:04.441Z,984.33
2019-02-01T08:53:04.423Z,984.32
2019-02-01T08:54:04.382Z,984.28
2019-02-01T08:55:04.363Z,984.24
2019-02-01T08:56:04.327Z,984.28
2019-02-01T08:57:04.307Z,984.26
2019-02-01T08:58:04.277Z,984.29
2019-02-01T08:59:04.242Z,984.35
2019-02-01T09:00:04.215Z,984.33
2019-02-01T09:01:04.186Z,984.33
2019-02-01T09:02:04.162Z,984.39
2019-02-01T09:03:04.131Z,984.38
2019-02-01T09:04:04.117Z,984.35
2019-02-01T09:05:04.076Z,984.33
2019-02-01T09:06:04.047Z,984.35
2019-02-01T09:07:04.020Z,984.27
2019-02-01T09:08:03.994Z,984.25
2019-02-01T09:09:03.971Z,984.23
2019-02-01T09:10:03.942Z,984.29
2019-02-01T09:11:03.910Z,984.27
2019-02-01T09:12:03.884Z,984.26
2019-02-01T09:13:03.860Z,984.29
2019-02-01T09:14:03.825Z,984.28
2019-02-01T09:15:03.807Z,984.31
2019-02-01T09:16:03.786Z,984.35
2019-02-01T09:17:03.741Z,984.28
2019-02-01T09:18:04.241Z,984.28
2019-02-01T09:19:03.692Z,984.33
2019-02-01T09:20:03.675Z,984.33
2019-02-01T09:21:03.903Z,984.32
2019-02-01T09:22:03.604Z,984.33
2019-02-01T09:23:03.580Z,984.32
2019-02-01T09:24:03.548Z,984.32
2019-02-01T09:25:03.528Z,984.37
2019-02-01T09:26:03.492Z,984.38
2019-02-01T09:27:03.475Z,984.34
2019-02-01T09:28:03.453Z,984.33
2019-02-01T09:29:03.414Z,984.37
2019-02-01T09:30:03.383Z,984.36
2019-02-01T09:31:03.357Z,984.34
2019-02-01T09:32:03.333Z,984.35
2019-02-01T09:33:03.300Z,984.35
2019-02-01T09:34:03.273Z,984.28
2019-02-01T09:35:03.246Z,984.28
2019-02-01T09:36:03.218Z,984.28
2019-02-01T09:37:03.190Z,984.26
2019-02-01T09:38:03.179Z,984.23
2019-02-01T09:39:03.135Z,984.22
2019-02-01T09:40:03.109Z,984.25
2019-02-01T09:41:03.080Z,984.27
2019-02-01T09:42:03.052Z,984.27
2019-02-01T09:43:03.030Z,984.27
2019-02-01T09:44:02.997Z,984.24
2019-02-01T09:45:02.973Z,984.22
2019-02-01T09:46:02.945Z,984.20
2019-02-01T09:47:02.913Z,984.21
2019-02-01T09:48:02.887Z,984.28
2019-02-01T09:49:02.867Z,984.28
2019-02-01T09:50:02.839Z,984.28
2019-02-01T09:51:02.810Z,984.29
2019-02-01T09:52:05.730Z,984.28
2019-02-01T09:53:02.751Z,984.28
2019-02-01T09:54:02.736Z,984.33
2019-02-01T09:55:02.696Z,984.35
2019-02-01T09:56:02.668Z,984.36
2019-02-01T09:57:02.643Z,984.38
2019-02-01T09:58:02.623Z,984.42
2019-02-01T09:59:02.595Z,984.42
2019-02-01T10:00:02.560Z,984.43
2019-02-01T10:01:02.533Z,984.44
2019-02-01T10:02:02.500Z,984.45
2019-02-01T10:03:02.477Z,984.50
2019-02-01T10:04:02.447Z,984.49
2019-02-01T10:05:02.436Z,984.49
2019-02-01T10:06:02.396Z,984.48
2019-02-01T10:07:02.366Z,984.50
2019-02-01T10:08:02.345Z,984.46
2019-02-01T10:09:02.319Z,984.46
2019-02-01T10:10:02.281Z,984.51
2019-02-01T10:11:02.264Z,984.53
2019-02-01T10:12:02.235Z,984.60
2019-02-01T10:13:02.200Z,984.62
2019-02-01T10:14:02.195Z,984.63
2019-02-01T10:15:02.145Z,984.59
2019-02-01T10:16:02.120Z,984.64
2019-02-01T10:17:02.092Z,984.65
2019-02-01T10:18:02.072Z,984.64
2019-02-01T10:19:02.039Z,984.62
2019-02-01T10:20:02.017Z,984.66
2019-02-01T10:21:01.983Z,984.67
2019-02-01T10:22:12.875Z,984.73
2019-02-01T10:23:01.931Z,984.77
2019-02-01T10:24:01.901Z,984.76
2019-02-01T10:25:01.899Z,984.80
2019-02-01T10:26:01.852Z,984.83
2019-02-01T10:27:01.819Z,984.85
2019-02-01T10:28:01.807Z,984.89
2019-02-01T10:29:01.771Z,984.87
2019-02-01T10:30:01.741Z,984.89
2019-02-01T10:31:01.717Z,984.91
2019-02-01T10:32:01.685Z,984.95
2019-02-01T10:33:01.659Z,984.96
2019-02-01T10:34:04.469Z,984.97
2019-02-01T10:35:01.618Z,984.97
2019-02-01T10:36:01.578Z,984.99
2019-02-01T10:37:01.549Z,984.98
2019-02-01T10:38:01.523Z,985.05
2019-02-01T10:39:01.505Z,984.98
2019-02-01T10:40:01.477Z,985.02
2019-02-01T10:41:01.442Z,985.01
2019-02-01T10:42:03.690Z,985.01
2019-02-01T10:43:01.473Z,985.01
2019-02-01T10:44:01.362Z,985.02
2019-02-01T10:45:01.450Z,985.01
2019-02-01T10:46:01.317Z,984.99
2019-02-01T10:47:10.699Z,984.96
2019-02-01T10:48:01.255Z,984.96
2019-02-01T10:49:01.256Z,984.97
2019-02-01T10:50:01.201Z,984.94
2019-02-01T10:51:01.176Z,984.96
2019-02-01T10:52:01.157Z,984.96
2019-02-01T10:53:01.250Z,985.01
2019-02-01T10:54:01.103Z,984.96
2019-02-01T10:55:01.078Z,984.96
2019-02-01T10:56:01.060Z,984.95
2019-02-01T10:57:01.019Z,984.85
2019-02-01T10:58:00.994Z,984.85
2019-02-01T10:59:00.964Z,984.83
2019-02-01T11:00:00.938Z,984.83
2019-02-01T11:01:00.913Z,984.83
2019-02-01T11:02:00.897Z,984.86
2019-02-01T11:03:00.859Z,984.83
2019-02-01T11:04:00.836Z,984.82
2019-02-01T11:05:00.815Z,984.81
2019-02-01T11:06:00.784Z,984.80
2019-02-01T11:07:00.764Z,984.83
2019-02-01T11:08:00.739Z,984.81
2019-02-01T11:09:00.713Z,984.77
2019-02-01T11:10:00.682Z,984.79
2019-02-01T11:11:00.663Z,984.83
2019-02-01T11:12:00.627Z,984.81
2019-02-01T11:13:00.607Z,984.85
2019-02-01T11:14:00.576Z,984.86
2019-02-01T11:15:00.560Z,984.95
2019-02-01T11:16:00.527Z,984.88
2019-02-01T11:17:00.510Z,984.92
2019-02-01T11:18:00.475Z,984.92
2019-02-01T11:19:00.456Z,984.94
2019-02-01T11:20:00.425Z,984.94
2019-02-01T11:21:00.401Z,984.97
2019-02-01T11:22:00.374Z,984.99
2019-02-01T11:23:00.358Z,984.97
2019-02-01T11:24:00.376Z,984.93
2019-02-01T11:25:00.384Z,984.92
2019-02-01T11:26:00.277Z,984.90
2019-02-01T11:27:00.257Z,984.88
2019-02-01T11:28:00.240Z,984.94
2019-02-01T11:29:00.223Z,984.90
2019-02-01T11:30:00.352Z,984.94
2019-02-01T11:31:00.332Z,984.98
2019-02-01T11:32:00.130Z,984.98
2019-02-01T11:33:00.106Z,985.00
2019-02-01T11:34:00.076Z,984.99
2019-02-01T11:35:00.057Z,984.99
2019-02-01T11:36:00.034Z,985.01
2019-02-01T11:37:00.005Z,985.04
2019-02-01T11:37:59.992Z,985.03
2019-02-01T11:38:59.956Z,985.02
2019-02-01T11:39:59.930Z,984.97
2019-02-01T11:40:59.989Z,985.02
2019-02-01T11:41:59.890Z,985.03
2019-02-01T11:42:59.859Z,984.99
2019-02-01T11:43:59.841Z,985.01
2019-02-01T11:44:59.811Z,985.01
2019-02-01T11:45:59.792Z,985.00
2019-02-01T11:46:59.762Z,985.02
2019-02-01T11:47:59.748Z,985.00
2019-02-01T11:48:59.715Z,985.00
2019-02-01T11:50:00.043Z,985.01
2019-02-01T11:50:59.668Z,985.01
2019-02-01T11:51:59.645Z,984.99
2019-02-01T11:52:59.621Z,985.00
2019-02-01T11:53:59.597Z,984.98
2019-02-01T11:54:59.585Z,985.02
2019-02-01T11:56:01.943Z,985.00
2019-02-01T11:56:59.526Z,985.05
2019-02-01T11:57:59.503Z,985.07
2019-02-01T11:59:07.536Z,985.02
2019-02-01T11:59:59.456Z,985.06
2019-02-01T12:00:59.432Z,985.08
2019-02-01T12:01:59.413Z,985.05
2019-02-01T12:02:59.406Z,985.08
2019-02-01T12:03:59.368Z,985.05
2019-02-01T12:04:59.346Z,985.02
2019-02-01T12:05:59.315Z,985.09
2019-02-01T12:06:59.294Z,985.09
2019-02-01T12:07:59.268Z,985.09
2019-02-01T12:08:59.263Z,985.05
2019-02-01T12:09:59.228Z,985.00
2019-02-01T12:10:59.213Z,984.99
2019-02-01T12:11:59.177Z,984.99
2019-02-01T12:12:59.153Z,984.98
2019-02-01T12:13:59.150Z,984.98
2019-02-01T12:14:59.105Z,985.03
2019-02-01T12:15:59.100Z,985.01
2019-02-01T12:16:59.061Z,985.00
2019-02-01T12:17:59.044Z,985.02
2019-02-01T12:18:59.016Z,985.01
2019-02-01T12:19:59.004Z,985.00
2019-02-01T12:20:58.975Z,985.04
2019-02-01T12:21:58.950Z,985.05
2019-02-01T12:23:00.830Z,985.00
2019-02-01T12:23:58.919Z,985.02
2019-02-01T12:24:58.877Z,985.02
2019-02-01T12:25:59.001Z,985.03
2019-02-01T12:27:01.423Z,985.01
2019-02-01T12:27:58.819Z,985.02